createdAt,value
2023-02-18T00:00:30.883Z,30.20
2023-02-18T00:01:30.865Z,36.70
2023-02-18T00:02:30.861Z,31.00
2023-02-18T00:03:31.040Z,29.80
2023-02-18T00:04:30.990Z,29.50
2023-02-18T00:05:30.798Z,28.40
2023-02-18T00:06:30.789Z,29.00
2023-02-18T00:07:30.769Z,31.40
2023-02-18T00:08:30.758Z,28.00
2023-02-18T00:09:30.757Z,31.00
2023-02-18T00:10:30.735Z,28.60
2023-02-18T00:11:30.718Z,27.90
2023-02-18T00:12:30.709Z,33.90
2023-02-18T00:13:30.868Z,35.50
2023-02-18T00:14:30.675Z,30.20
2023-02-18T00:15:30.683Z,27.10
2023-02-18T00:16:30.649Z,30.10
2023-02-18T00:17:30.816Z,32.10
2023-02-18T00:18:30.626Z,28.90
2023-02-18T00:19:30.616Z,25.80
2023-02-18T00:20:30.595Z,28.50
2023-02-18T00:21:30.585Z,30.30
2023-02-18T00:22:30.597Z,28.20
2023-02-18T00:23:30.555Z,31.50
2023-02-18T00:24:30.545Z,33.30
2023-02-18T00:25:30.534Z,31.90
2023-02-18T00:26:30.569Z,33.80
2023-02-18T00:27:30.517Z,32.10
2023-02-18T00:28:30.664Z,31.10
2023-02-18T00:29:30.495Z,37.00
2023-02-18T00:30:30.520Z,32.30
2023-02-18T00:31:30.563Z,33.70
2023-02-18T00:32:30.443Z,32.50
2023-02-18T00:33:30.423Z,31.90
2023-02-18T00:34:30.434Z,32.50
2023-02-18T00:35:30.402Z,28.90
2023-02-18T00:36:30.394Z,32.50
2023-02-18T00:37:30.382Z,31.30
2023-02-18T00:38:30.363Z,30.70
2023-02-18T00:39:30.382Z,32.10
2023-02-18T00:40:30.335Z,35.20
2023-02-18T00:41:30.322Z,36.30
2023-02-18T00:42:30.312Z,31.20
2023-02-18T00:43:30.316Z,36.30
2023-02-18T00:44:30.294Z,36.20
2023-02-18T00:45:30.276Z,37.10
2023-02-18T00:46:30.298Z,36.30
2023-02-18T00:47:30.431Z,36.30
2023-02-18T00:48:30.233Z,35.70
2023-02-18T00:49:30.221Z,36.60
2023-02-18T00:50:30.211Z,32.00
2023-02-18T00:51:30.199Z,33.00
2023-02-18T00:52:30.363Z,31.40
2023-02-18T00:53:30.209Z,32.00
2023-02-18T00:54:30.169Z,33.50
2023-02-18T00:55:30.148Z,30.50
2023-02-18T00:56:30.134Z,30.90
2023-02-18T00:57:30.119Z,39.60
2023-02-18T00:58:30.105Z,30.50
2023-02-18T00:59:30.118Z,33.70
2023-02-18T01:00:30.068Z,35.10
2023-02-18T01:01:30.129Z,30.40
2023-02-18T01:02:30.054Z,30.20
2023-02-18T01:03:30.055Z,30.80
2023-02-18T01:04:30.230Z,30.80
2023-02-18T01:05:30.026Z,33.50
2023-02-18T01:06:30.323Z,34.10
2023-02-18T01:07:29.992Z,33.00
2023-02-18T01:08:29.983Z,29.40
2023-02-18T01:09:29.984Z,27.60
2023-02-18T01:10:30.132Z,32.00
2023-02-18T01:11:29.941Z,28.80
2023-02-18T01:12:29.930Z,31.30
2023-02-18T01:13:29.941Z,32.30
2023-02-18T01:14:30.114Z,27.30
2023-02-18T01:15:29.891Z,26.60
2023-02-18T01:16:29.951Z,25.20
2023-02-18T01:17:29.868Z,31.10
2023-02-18T01:18:29.850Z,29.10
2023-02-18T01:19:29.842Z,27.30
2023-02-18T01:20:30.163Z,25.40
2023-02-18T01:21:29.814Z,27.00
2023-02-18T01:22:29.798Z,24.50
2023-02-18T01:23:29.801Z,28.60
2023-02-18T01:24:29.773Z,25.70
2023-02-18T01:25:29.931Z,24.50
2023-02-18T01:26:29.758Z,26.30
2023-02-18T01:27:29.738Z,29.60
2023-02-18T01:28:29.713Z,25.50
2023-02-18T01:29:29.709Z,22.40
2023-02-18T01:30:29.909Z,28.30
2023-02-18T01:31:29.797Z,31.30
2023-02-18T01:32:29.841Z,30.40
2023-02-18T01:33:29.660Z,30.70
2023-02-18T01:34:29.642Z,26.60
2023-02-18T01:35:29.808Z,28.30
2023-02-18T01:36:29.620Z,30.60
2023-02-18T01:37:29.613Z,28.80
2023-02-18T01:38:29.770Z,29.40
2023-02-18T01:39:29.591Z,26.50
2023-02-18T01:40:29.737Z,28.70
2023-02-18T01:41:29.563Z,25.40
2023-02-18T01:42:29.536Z,38.20
2023-02-18T01:43:29.536Z,25.00
2023-02-18T01:44:29.707Z,26.60
2023-02-18T01:45:29.497Z,27.20
2023-02-18T01:46:29.661Z,26.70
2023-02-18T01:47:29.470Z,27.30
2023-02-18T01:48:29.462Z,30.00
2023-02-18T01:49:29.454Z,26.10
2023-02-18T01:50:29.439Z,25.20
2023-02-18T01:51:29.595Z,23.20
2023-02-18T01:52:29.401Z,26.80
2023-02-18T01:53:29.393Z,24.70
2023-02-18T01:54:29.382Z,28.20
2023-02-18T01:55:29.369Z,24.30
2023-02-18T01:56:29.536Z,26.90
2023-02-18T01:57:29.538Z,28.30
2023-02-18T01:58:29.321Z,23.80
2023-02-18T01:59:29.314Z,24.80
2023-02-18T02:00:29.337Z,24.70
2023-02-18T02:01:29.289Z,23.00
2023-02-18T02:02:29.455Z,26.10
2023-02-18T02:03:29.266Z,28.70
2023-02-18T02:04:29.246Z,25.00
2023-02-18T02:05:29.236Z,22.60
2023-02-18T02:06:29.232Z,22.20
2023-02-18T02:07:29.401Z,22.10
2023-02-18T02:08:29.190Z,18.90
2023-02-18T02:09:29.395Z,21.70
2023-02-18T02:10:29.165Z,21.70
2023-02-18T02:11:29.167Z,22.70
2023-02-18T02:12:29.143Z,25.80
2023-02-18T02:13:29.136Z,21.60
2023-02-18T02:14:29.115Z,20.60
2023-02-18T02:15:29.285Z,20.30
2023-02-18T02:16:29.125Z,23.10
2023-02-18T02:17:29.078Z,24.60
2023-02-18T02:18:29.071Z,19.50
2023-02-18T02:19:29.057Z,25.40
2023-02-18T02:20:29.223Z,22.40
2023-02-18T02:21:29.024Z,20.00
2023-02-18T02:22:29.214Z,23.50
2023-02-18T02:23:29.004Z,19.70
2023-02-18T02:24:28.986Z,18.10
2023-02-18T02:25:28.984Z,21.40
2023-02-18T02:26:28.954Z,22.40
2023-02-18T02:27:28.943Z,18.70
2023-02-18T02:28:29.113Z,23.00
2023-02-18T02:29:28.932Z,19.60
2023-02-18T02:30:28.927Z,21.40
2023-02-18T02:31:28.912Z,19.70
2023-02-18T02:32:28.883Z,16.10
2023-02-18T02:33:28.874Z,19.60
2023-02-18T02:34:28.863Z,17.90
2023-02-18T02:35:28.843Z,16.80
2023-02-18T02:36:28.832Z,19.10
2023-02-18T02:37:28.820Z,18.70
2023-02-18T02:38:28.801Z,16.80
2023-02-18T02:39:28.974Z,16.40
2023-02-18T02:40:28.781Z,15.50
2023-02-18T02:41:28.940Z,13.70
2023-02-18T02:42:28.762Z,16.90
2023-02-18T02:43:28.754Z,14.40
2023-02-18T02:44:28.729Z,17.00
2023-02-18T02:45:28.843Z,15.60
2023-02-18T02:46:28.891Z,15.70
2023-02-18T02:47:28.691Z,16.10
2023-02-18T02:48:28.687Z,13.50
2023-02-18T02:49:28.662Z,17.30
2023-02-18T02:50:28.851Z,15.80
2023-02-18T02:51:28.643Z,15.80
2023-02-18T02:52:28.641Z,13.30
2023-02-18T02:53:28.912Z,14.20
2023-02-18T02:54:28.655Z,15.00
2023-02-18T02:55:28.597Z,16.70
2023-02-18T02:56:28.581Z,14.30
2023-02-18T02:57:28.564Z,13.50
2023-02-18T02:58:28.732Z,14.40
2023-02-18T02:59:28.715Z,13.00
2023-02-18T03:00:28.537Z,12.60
2023-02-18T03:01:28.517Z,13.70
2023-02-18T03:02:28.864Z,12.60
2023-02-18T03:03:28.497Z,12.60
2023-02-18T03:04:28.481Z,13.80
2023-02-18T03:05:28.661Z,13.20
2023-02-18T03:06:28.461Z,13.40
2023-02-18T03:07:28.614Z,14.00
2023-02-18T03:08:28.429Z,14.60
2023-02-18T03:09:28.413Z,10.70
2023-02-18T03:10:28.412Z,11.70
2023-02-18T03:11:28.381Z,10.60
2023-02-18T03:12:28.564Z,10.60
2023-02-18T03:13:28.354Z,13.00
2023-02-18T03:14:28.357Z,11.80
2023-02-18T03:15:28.333Z,11.80
2023-02-18T03:16:28.563Z,16.50
2023-02-18T03:17:28.311Z,11.70
2023-02-18T03:18:28.492Z,11.70
2023-02-18T03:19:28.313Z,14.20
2023-02-18T03:20:28.297Z,11.00
2023-02-18T03:21:28.441Z,12.50
2023-02-18T03:22:28.269Z,10.30
2023-02-18T03:23:28.409Z,12.90
2023-02-18T03:24:28.225Z,13.00
2023-02-18T03:25:28.201Z,12.20
2023-02-18T03:26:28.373Z,12.70
2023-02-18T03:27:28.180Z,11.80
2023-02-18T03:28:28.168Z,10.50
2023-02-18T03:29:28.157Z,14.90
2023-02-18T03:30:28.193Z,15.70
2023-02-18T03:31:28.191Z,16.00
2023-02-18T03:32:28.118Z,14.30
2023-02-18T03:33:28.118Z,12.50
2023-02-18T03:34:28.090Z,12.60
2023-02-18T03:35:28.078Z,12.10
2023-02-18T03:36:28.073Z,12.50
2023-02-18T03:37:28.058Z,13.80
2023-02-18T03:38:28.037Z,12.50
2023-02-18T03:39:28.023Z,13.10
2023-02-18T03:40:28.007Z,11.60
2023-02-18T03:41:27.996Z,11.90
2023-02-18T03:42:28.157Z,12.30
2023-02-18T03:43:28.145Z,12.90
2023-02-18T03:44:27.968Z,12.00
2023-02-18T03:45:27.945Z,12.30
2023-02-18T03:46:27.960Z,14.00
2023-02-18T03:47:27.931Z,16.70
2023-02-18T03:48:28.088Z,13.50
2023-02-18T03:49:27.896Z,13.60
2023-02-18T03:50:27.886Z,12.50
2023-02-18T03:51:27.882Z,13.90
2023-02-18T03:52:28.035Z,12.30
2023-02-18T03:53:27.849Z,13.40
2023-02-18T03:54:27.836Z,16.40
2023-02-18T03:55:27.825Z,12.70
2023-02-18T03:56:27.812Z,15.10
2023-02-18T03:57:27.972Z,14.90
2023-02-18T03:58:27.962Z,16.60
2023-02-18T03:59:27.762Z,15.00
2023-02-18T04:00:27.750Z,15.50
2023-02-18T04:01:27.803Z,16.80
2023-02-18T04:02:27.731Z,15.30
2023-02-18T04:03:27.727Z,17.60
2023-02-18T04:04:27.754Z,17.10
2023-02-18T04:05:27.680Z,15.00
2023-02-18T04:06:27.671Z,15.40
2023-02-18T04:07:27.817Z,18.20
2023-02-18T04:08:27.636Z,19.50
2023-02-18T04:09:27.637Z,21.90
2023-02-18T04:10:27.622Z,16.60
2023-02-18T04:11:27.611Z,18.50
2023-02-18T04:12:27.766Z,15.90
2023-02-18T04:13:27.576Z,18.10
2023-02-18T04:14:27.570Z,19.00
2023-02-18T04:15:27.561Z,17.30
2023-02-18T04:16:27.730Z,21.70
2023-02-18T04:17:27.777Z,19.90
2023-02-18T04:18:27.515Z,16.60
2023-02-18T04:19:27.496Z,18.20
2023-02-18T04:20:27.485Z,17.30
2023-02-18T04:21:27.490Z,15.90
2023-02-18T04:22:27.474Z,17.60
2023-02-18T04:23:27.622Z,18.80
2023-02-18T04:24:27.490Z,17.40
2023-02-18T04:25:27.424Z,19.40
2023-02-18T04:26:27.402Z,19.40
2023-02-18T04:27:27.398Z,15.40
2023-02-18T04:28:27.552Z,15.50
2023-02-18T04:29:27.383Z,16.90
2023-02-18T04:30:27.389Z,18.60
2023-02-18T04:31:27.506Z,17.10
2023-02-18T04:32:27.342Z,16.50
2023-02-18T04:33:27.334Z,15.10
2023-02-18T04:34:27.301Z,14.10
2023-02-18T04:35:27.291Z,15.10
2023-02-18T04:36:27.271Z,16.90
2023-02-18T04:37:27.274Z,16.40
2023-02-18T04:38:27.430Z,18.70
2023-02-18T04:39:27.983Z,19.10
2023-02-18T04:40:27.221Z,18.20
2023-02-18T04:41:27.214Z,18.70
2023-02-18T04:42:27.203Z,14.70
2023-02-18T04:43:27.362Z,17.90
2023-02-18T04:44:27.171Z,14.70
2023-02-18T04:45:27.169Z,16.00
2023-02-18T04:46:27.206Z,15.20
2023-02-18T04:47:27.140Z,15.60
2023-02-18T04:48:27.431Z,15.00
2023-02-18T04:49:27.120Z,11.20
2023-02-18T04:50:27.089Z,13.70
2023-02-18T04:51:27.268Z,15.40
2023-02-18T04:52:27.070Z,14.40
2023-02-18T04:53:27.072Z,12.50
2023-02-18T04:54:27.041Z,14.90
2023-02-18T04:55:27.030Z,12.10
2023-02-18T04:56:27.199Z,10.40
2023-02-18T04:57:27.011Z,12.60
2023-02-18T04:58:26.985Z,9.20
2023-02-18T04:59:26.982Z,9.10
2023-02-18T05:00:26.972Z,8.40
2023-02-18T05:01:27.002Z,7.50
2023-02-18T05:02:27.109Z,7.60
2023-02-18T05:03:26.940Z,8.40
2023-02-18T05:04:26.965Z,5.60
2023-02-18T05:05:27.095Z,7.30
2023-02-18T05:06:26.891Z,6.70
2023-02-18T05:07:26.891Z,8.90
2023-02-18T05:08:26.862Z,5.60
2023-02-18T05:09:26.860Z,4.70
2023-02-18T05:10:27.025Z,6.90
2023-02-18T05:11:26.843Z,6.40
2023-02-18T05:12:26.822Z,5.70
2023-02-18T05:13:26.809Z,4.80
2023-02-18T05:14:26.792Z,3.70
2023-02-18T05:15:26.790Z,4.50
2023-02-18T05:16:26.943Z,3.80
2023-02-18T05:17:26.754Z,5.10
2023-02-18T05:18:26.740Z,3.50
2023-02-18T05:19:27.464Z,2.60
2023-02-18T05:20:26.710Z,2.90
2023-02-18T05:21:26.884Z,3.50
2023-02-18T05:22:26.704Z,4.00
2023-02-18T05:23:26.850Z,2.90
2023-02-18T05:24:26.676Z,4.20
2023-02-18T05:25:26.651Z,2.80
2023-02-18T05:26:26.630Z,3.20
2023-02-18T05:27:26.631Z,3.10
2023-02-18T05:28:26.785Z,3.00
2023-02-18T05:29:26.600Z,4.20
2023-02-18T05:30:26.804Z,2.50
2023-02-18T05:31:26.740Z,6.80
2023-02-18T05:32:26.562Z,2.00
2023-02-18T05:33:26.550Z,2.20
2023-02-18T05:34:26.540Z,3.70
2023-02-18T05:35:26.701Z,3.10
2023-02-18T05:36:26.692Z,2.50
2023-02-18T05:37:26.500Z,3.00
2023-02-18T05:38:26.480Z,2.80
2023-02-18T05:39:26.477Z,1.50
2023-02-18T05:40:26.448Z,2.20
2023-02-18T05:41:26.620Z,2.70
2023-02-18T05:42:26.441Z,2.00
2023-02-18T05:43:26.417Z,1.70
2023-02-18T05:44:26.585Z,1.70
2023-02-18T05:45:26.386Z,1.80
2023-02-18T05:46:26.411Z,2.30
2023-02-18T05:47:26.367Z,2.30
2023-02-18T05:48:26.525Z,1.80
2023-02-18T05:49:26.335Z,2.80
2023-02-18T05:50:26.495Z,2.10
2023-02-18T05:51:26.315Z,1.70
2023-02-18T05:52:26.304Z,2.00
2023-02-18T05:53:26.464Z,1.90
2023-02-18T05:54:26.289Z,2.10
2023-02-18T05:55:26.268Z,1.90
2023-02-18T05:56:26.430Z,2.70
2023-02-18T05:57:26.270Z,2.80
2023-02-18T05:58:26.222Z,1.70
2023-02-18T05:59:26.220Z,2.30
2023-02-18T06:00:26.376Z,2.80
2023-02-18T06:01:26.356Z,2.40
2023-02-18T06:02:26.236Z,2.00
2023-02-18T06:03:26.152Z,3.00
2023-02-18T06:04:26.150Z,1.80
2023-02-18T06:05:26.357Z,3.10
2023-02-18T06:06:26.137Z,2.40
2023-02-18T06:07:26.102Z,2.50
2023-02-18T06:08:26.124Z,2.00
2023-02-18T06:09:26.084Z,2.90
2023-02-18T06:10:26.245Z,2.60
2023-02-18T06:11:26.051Z,2.80
2023-02-18T06:12:26.049Z,2.00
2023-02-18T06:13:26.029Z,2.30
2023-02-18T06:14:26.022Z,3.30
2023-02-18T06:15:26.179Z,2.40
2023-02-18T06:16:26.032Z,2.90
2023-02-18T06:17:25.996Z,2.10
2023-02-18T06:18:25.970Z,3.90
2023-02-18T06:19:25.951Z,2.90
2023-02-18T06:20:26.124Z,3.10
2023-02-18T06:21:26.117Z,3.60
2023-02-18T06:22:26.110Z,2.50
2023-02-18T06:23:25.898Z,3.00
2023-02-18T06:24:25.889Z,3.00
2023-02-18T06:25:25.869Z,2.90
2023-02-18T06:26:26.036Z,3.10
2023-02-18T06:27:25.848Z,5.30
2023-02-18T06:28:25.839Z,3.20
2023-02-18T06:29:25.821Z,2.20
2023-02-18T06:30:25.921Z,2.40
2023-02-18T06:31:25.921Z,2.70
2023-02-18T06:32:25.851Z,2.60
2023-02-18T06:33:25.766Z,4.00
2023-02-18T06:34:25.758Z,2.90
2023-02-18T06:35:25.746Z,5.10
2023-02-18T06:36:25.752Z,2.80
2023-02-18T06:37:25.724Z,2.50
2023-02-18T06:38:25.702Z,3.90
2023-02-18T06:39:25.685Z,3.00
2023-02-18T06:40:25.673Z,2.70
2023-02-18T06:41:25.671Z,3.60
2023-02-18T06:42:25.960Z,2.70
2023-02-18T06:43:25.818Z,2.80
2023-02-18T06:44:25.621Z,3.30
2023-02-18T06:45:25.614Z,3.70
2023-02-18T06:46:25.685Z,2.60
2023-02-18T06:47:25.758Z,3.50
2023-02-18T06:48:25.571Z,4.10
2023-02-18T06:49:25.562Z,3.90
2023-02-18T06:50:25.546Z,2.50
2023-02-18T06:51:25.567Z,2.20
2023-02-18T06:52:25.593Z,1.90
2023-02-18T06:53:25.509Z,3.20
2023-02-18T06:54:25.510Z,2.60
2023-02-18T06:55:25.482Z,2.40
2023-02-18T06:56:25.489Z,2.40
2023-02-18T06:57:25.448Z,4.20
2023-02-18T06:58:25.449Z,2.10
2023-02-18T06:59:25.431Z,2.30
2023-02-18T07:00:25.415Z,3.00
2023-02-18T07:01:25.582Z,2.90
2023-02-18T07:02:25.395Z,4.50
2023-02-18T07:03:25.413Z,5.00
2023-02-18T07:04:25.366Z,3.80
2023-02-18T07:05:25.346Z,2.50
2023-02-18T07:06:25.515Z,2.60
2023-02-18T07:07:25.331Z,3.40
2023-02-18T07:08:25.315Z,2.90
2023-02-18T07:09:25.295Z,3.20
2023-02-18T07:10:25.296Z,3.70
2023-02-18T07:11:25.295Z,3.50
2023-02-18T07:12:25.447Z,4.80
2023-02-18T07:13:25.252Z,6.10
2023-02-18T07:14:25.232Z,3.60
2023-02-18T07:15:25.219Z,3.30
2023-02-18T07:16:25.261Z,4.10
2023-02-18T07:17:25.212Z,3.50
2023-02-18T07:18:25.204Z,3.00
2023-02-18T07:19:25.342Z,4.60
2023-02-18T07:20:25.164Z,3.00
2023-02-18T07:21:25.152Z,4.20
2023-02-18T07:22:25.302Z,5.20
2023-02-18T07:23:25.113Z,3.30
2023-02-18T07:24:25.107Z,2.90
2023-02-18T07:25:25.263Z,5.70
2023-02-18T07:26:25.092Z,4.00
2023-02-18T07:27:25.316Z,3.10
2023-02-18T07:28:25.050Z,2.60
2023-02-18T07:29:25.048Z,2.70
2023-02-18T07:30:25.074Z,3.30
2023-02-18T07:31:25.429Z,2.80
2023-02-18T07:32:25.000Z,3.00
2023-02-18T07:33:24.980Z,3.20
2023-02-18T07:34:24.984Z,3.10
2023-02-18T07:35:24.969Z,3.20
2023-02-18T07:36:24.952Z,3.20
2023-02-18T07:37:25.109Z,3.40
2023-02-18T07:38:24.951Z,4.60
2023-02-18T07:39:24.918Z,3.50
2023-02-18T07:40:24.910Z,3.20
2023-02-18T07:41:24.892Z,3.60
2023-02-18T07:42:24.892Z,2.10
2023-02-18T07:43:24.867Z,2.90
2023-02-18T07:44:24.860Z,2.80
2023-02-18T07:45:24.896Z,3.70
2023-02-18T07:46:24.830Z,3.50
2023-02-18T07:47:24.999Z,4.80
2023-02-18T07:48:24.807Z,3.30
2023-02-18T07:49:24.789Z,3.00
2023-02-18T07:50:24.782Z,3.20
2023-02-18T07:51:24.761Z,2.90
2023-02-18T07:52:24.923Z,6.80
2023-02-18T07:53:24.748Z,3.30
2023-02-18T07:54:24.817Z,2.40
2023-02-18T07:55:24.728Z,4.70
2023-02-18T07:56:24.688Z,1.90
2023-02-18T07:57:24.869Z,2.70
2023-02-18T07:58:24.687Z,3.60
2023-02-18T07:59:24.687Z,3.40
2023-02-18T08:00:24.666Z,1.70
2023-02-18T08:01:24.616Z,3.80
2023-02-18T08:02:24.695Z,3.00
2023-02-18T08:03:24.597Z,1.80
2023-02-18T08:04:24.705Z,2.70
2023-02-18T08:05:24.588Z,2.20
2023-02-18T08:06:24.567Z,4.90
2023-02-18T08:07:24.557Z,2.30
2023-02-18T08:08:24.536Z,1.80
2023-02-18T08:09:24.516Z,1.80
2023-02-18T08:10:24.521Z,1.10
2023-02-18T08:11:24.525Z,1.80
2023-02-18T08:12:24.507Z,2.00
2023-02-18T08:13:24.477Z,2.80
2023-02-18T08:14:24.467Z,1.20
2023-02-18T08:15:24.454Z,1.40
2023-02-18T08:16:24.504Z,2.50
2023-02-18T08:17:24.453Z,1.60
2023-02-18T08:18:24.409Z,1.70
2023-02-18T08:19:24.414Z,1.60
2023-02-18T08:20:24.392Z,2.10
2023-02-18T08:21:24.375Z,1.80
2023-02-18T08:22:24.375Z,3.20
2023-02-18T08:23:24.358Z,1.60
2023-02-18T08:24:24.330Z,1.70
2023-02-18T08:25:29.638Z,1.50
2023-02-18T08:26:25.517Z,0.90
2023-02-18T08:27:24.311Z,1.90
2023-02-18T08:28:24.302Z,2.40
2023-02-18T08:29:24.314Z,1.00
2023-02-18T08:30:24.286Z,1.20
2023-02-18T08:31:24.347Z,1.20
2023-02-18T08:32:24.259Z,1.60
2023-02-18T08:33:24.275Z,2.00
2023-02-18T08:34:24.210Z,1.30
2023-02-18T08:35:24.198Z,3.10
2023-02-18T08:36:24.183Z,1.50
2023-02-18T08:37:24.177Z,2.10
2023-02-18T08:38:24.168Z,1.90
2023-02-18T08:39:24.148Z,1.20
2023-02-18T08:40:24.131Z,1.20
2023-02-18T08:41:24.119Z,1.10
2023-02-18T08:42:24.157Z,0.90
2023-02-18T08:43:24.260Z,0.80
2023-02-18T08:44:24.277Z,0.50
2023-02-18T08:45:24.062Z,1.30
2023-02-18T08:46:33.321Z,0.60
2023-02-18T08:48:17.855Z,0.90
2023-02-18T08:48:25.035Z,1.00
2023-02-18T08:49:24.274Z,1.50
2023-02-18T08:50:23.999Z,0.90
2023-02-18T08:51:24.013Z,0.90
2023-02-18T08:52:23.993Z,2.00
2023-02-18T08:53:23.956Z,2.00
2023-02-18T08:54:24.138Z,2.70
2023-02-18T08:55:24.112Z,3.20
2023-02-18T08:56:23.944Z,4.50
2023-02-18T08:57:23.903Z,4.30
2023-02-18T08:58:23.894Z,2.40
2023-02-18T08:59:23.883Z,3.20
2023-02-18T09:00:23.896Z,8.30
2023-02-18T09:01:24.107Z,4.60
2023-02-18T09:02:23.864Z,2.80
2023-02-18T09:03:23.843Z,2.70
2023-02-18T09:04:23.913Z,3.40
2023-02-18T09:05:23.813Z,4.30
2023-02-18T09:06:23.795Z,3.60
2023-02-18T09:07:23.791Z,2.20
2023-02-18T09:08:23.763Z,4.50
2023-02-18T09:09:23.757Z,9.70
2023-02-18T09:10:23.879Z,3.70
2023-02-18T09:11:23.734Z,3.70
2023-02-18T09:12:23.772Z,5.30
2023-02-18T09:13:23.699Z,4.40
2023-02-18T09:14:23.700Z,6.70
2023-02-18T09:15:23.671Z,8.10
2023-02-18T09:16:26.088Z,6.40
2023-02-18T09:17:23.651Z,1.80
2023-02-18T09:18:23.821Z,3.50
2023-02-18T09:19:23.639Z,3.50
2023-02-18T09:20:23.610Z,4.00
2023-02-18T09:21:23.599Z,5.60
2023-02-18T09:22:23.589Z,7.00
2023-02-18T09:23:23.739Z,6.20
2023-02-18T09:24:23.559Z,8.70
2023-02-18T09:25:23.546Z,6.00
2023-02-18T09:26:23.577Z,7.10
2023-02-18T09:27:23.522Z,7.50
2023-02-18T09:28:23.520Z,6.30
2023-02-18T09:29:23.489Z,4.40
2023-02-18T09:30:23.581Z,6.30
2023-02-18T09:31:23.728Z,5.80
2023-02-18T09:32:34.358Z,6.40
2023-02-18T09:33:24.436Z,6.90
2023-02-18T09:34:23.422Z,7.00
2023-02-18T09:35:23.422Z,3.80
2023-02-18T09:36:23.581Z,4.50
2023-02-18T09:37:23.389Z,5.80
2023-02-18T09:38:23.560Z,9.40
2023-02-18T09:39:23.370Z,5.50
2023-02-18T09:40:23.353Z,6.80
2023-02-18T09:41:23.330Z,3.80
2023-02-18T09:42:23.335Z,5.00
2023-02-18T09:43:23.489Z,6.40
2023-02-18T09:44:23.305Z,4.30
2023-02-18T09:45:23.279Z,5.10
2023-02-18T09:46:23.523Z,4.50
2023-02-18T09:47:23.260Z,4.70
2023-02-18T09:48:24.742Z,6.30
2023-02-18T09:49:23.230Z,5.10
2023-02-18T09:50:23.245Z,8.90
2023-02-18T09:51:23.221Z,3.20
2023-02-18T09:52:23.197Z,5.40
2023-02-18T09:53:23.368Z,5.20
2023-02-18T09:54:23.182Z,8.10
2023-02-18T09:55:23.159Z,8.20
2023-02-18T09:56:23.162Z,4.00
2023-02-18T09:57:23.127Z,7.50
2023-02-18T09:58:23.297Z,7.20
2023-02-18T09:59:23.105Z,2.90
2023-02-18T10:00:23.256Z,6.20
2023-02-18T10:01:23.100Z,8.20
2023-02-18T10:02:23.067Z,6.60
2023-02-18T10:03:23.226Z,5.00
2023-02-18T10:04:23.046Z,5.10
2023-02-18T10:05:23.209Z,8.70
2023-02-18T10:06:23.014Z,8.00
2023-02-18T10:07:22.997Z,4.60
2023-02-18T10:08:23.013Z,4.50
2023-02-18T10:09:22.996Z,6.40
2023-02-18T10:10:23.161Z,9.60
2023-02-18T10:11:23.091Z,5.00
2023-02-18T10:12:22.946Z,9.30
2023-02-18T10:13:22.918Z,8.50
2023-02-18T10:14:22.930Z,5.20
2023-02-18T10:15:22.902Z,7.80
2023-02-18T10:16:23.112Z,11.10
2023-02-18T10:17:22.873Z,6.00
2023-02-18T10:18:22.889Z,6.60
2023-02-18T10:19:22.835Z,8.80
2023-02-18T10:20:22.841Z,8.00
2023-02-18T10:21:22.992Z,6.60
2023-02-18T10:22:22.807Z,11.70
2023-02-18T10:23:22.809Z,7.90
2023-02-18T10:24:22.809Z,8.50
2023-02-18T10:25:22.766Z,5.70
2023-02-18T10:26:23.055Z,9.40
2023-02-18T10:27:22.754Z,10.10
2023-02-18T10:28:22.733Z,6.00
2023-02-18T10:29:22.745Z,9.30
2023-02-18T10:30:22.735Z,9.70
2023-02-18T10:31:22.795Z,8.60
2023-02-18T10:32:22.685Z,9.90
2023-02-18T10:33:22.665Z,9.40
2023-02-18T10:34:22.663Z,6.50
2023-02-18T10:35:22.823Z,12.70
2023-02-18T10:36:22.623Z,7.40
2023-02-18T10:37:22.651Z,6.00
2023-02-18T10:38:22.603Z,6.60
2023-02-18T10:39:22.584Z,7.50
2023-02-18T10:40:22.756Z,10.20
2023-02-18T10:41:22.576Z,10.60
2023-02-18T10:42:22.573Z,4.50
2023-02-18T10:43:22.545Z,10.90
2023-02-18T10:44:22.562Z,8.60
2023-02-18T10:45:22.524Z,7.80
2023-02-18T10:46:22.727Z,8.00
2023-02-18T10:47:22.483Z,9.50
2023-02-18T10:48:22.484Z,9.40
2023-02-18T10:49:22.657Z,12.40
2023-02-18T10:50:22.444Z,5.40
2023-02-18T10:51:22.430Z,6.20
2023-02-18T10:52:22.420Z,8.10
2023-02-18T10:53:22.430Z,9.50
2023-02-18T10:54:22.400Z,4.70
2023-02-18T10:55:22.392Z,7.90
2023-02-18T10:56:22.382Z,5.00
2023-02-18T10:57:22.360Z,9.30
2023-02-18T10:58:22.348Z,8.40
2023-02-18T10:59:22.340Z,5.90
2023-02-18T11:00:22.498Z,8.20
2023-02-18T11:01:22.320Z,12.10
2023-02-18T11:02:22.304Z,9.40
2023-02-18T11:03:22.493Z,12.60
2023-02-18T11:04:22.295Z,9.30
2023-02-18T11:05:22.325Z,8.80
2023-02-18T11:06:22.313Z,8.90
2023-02-18T11:07:22.623Z,9.30
2023-02-18T11:08:22.303Z,4.60
2023-02-18T11:09:22.274Z,6.80
2023-02-18T11:10:22.186Z,10.50
2023-02-18T11:11:22.173Z,5.00
2023-02-18T11:12:22.177Z,8.40
2023-02-18T11:13:22.322Z,4.60
2023-02-18T11:14:22.135Z,9.30
2023-02-18T11:15:22.126Z,5.00
2023-02-18T11:16:22.178Z,8.10
2023-02-18T11:17:22.101Z,9.60
2023-02-18T11:18:22.262Z,7.70
2023-02-18T11:19:22.068Z,12.20
2023-02-18T11:20:22.233Z,9.80
2023-02-18T11:21:22.053Z,8.70
2023-02-18T11:22:22.024Z,6.60
2023-02-18T11:23:22.197Z,10.60
2023-02-18T11:24:22.009Z,4.70
2023-02-18T11:25:22.005Z,9.70
2023-02-18T11:26:21.991Z,4.30
2023-02-18T11:27:21.969Z,7.10
2023-02-18T11:28:21.977Z,5.40
2023-02-18T11:29:21.944Z,6.00
2023-02-18T11:30:21.968Z,12.80
2023-02-18T11:31:22.029Z,8.00
2023-02-18T11:32:21.933Z,13.40
2023-02-18T11:33:21.910Z,6.10
2023-02-18T11:34:21.870Z,5.40
2023-02-18T11:35:21.876Z,8.00
2023-02-18T11:36:22.029Z,7.50
2023-02-18T11:37:21.887Z,6.60
2023-02-18T11:38:21.829Z,5.40
2023-02-18T11:39:21.850Z,3.40
2023-02-18T11:40:21.796Z,8.90
2023-02-18T11:41:21.996Z,5.00
2023-02-18T11:42:21.776Z,5.50
2023-02-18T11:43:21.938Z,5.60
2023-02-18T11:44:21.788Z,4.70
2023-02-18T11:45:21.747Z,7.40
2023-02-18T11:46:21.747Z,4.50
2023-02-18T11:47:21.706Z,6.30
2023-02-18T11:48:21.713Z,5.20
2023-02-18T11:49:21.687Z,5.50
2023-02-18T11:50:21.676Z,6.20
2023-02-18T11:51:21.679Z,7.70
2023-02-18T11:52:21.829Z,8.00
2023-02-18T11:53:21.631Z,8.30
2023-02-18T11:54:21.618Z,4.40
2023-02-18T11:55:21.607Z,5.70
2023-02-18T11:56:21.598Z,4.50
2023-02-18T11:57:21.600Z,8.30
2023-02-18T11:58:21.587Z,4.50
2023-02-18T11:59:21.565Z,5.40
2023-02-18T12:00:21.576Z,5.00
2023-02-18T12:01:21.534Z,8.70
2023-02-18T12:02:21.558Z,3.60
2023-02-18T12:03:21.507Z,6.20
2023-02-18T12:04:21.505Z,4.80
2023-02-18T12:05:21.497Z,8.20
2023-02-18T12:06:21.480Z,4.70
2023-02-18T12:07:21.458Z,9.30
2023-02-18T12:08:21.439Z,6.20
2023-02-18T12:09:21.431Z,5.20
2023-02-18T12:10:21.433Z,4.70
2023-02-18T12:11:21.408Z,6.30
2023-02-18T12:12:21.393Z,4.70
2023-02-18T12:13:21.551Z,9.30
2023-02-18T12:14:21.369Z,6.30
2023-02-18T12:15:21.538Z,4.90
2023-02-18T12:16:21.367Z,3.90
2023-02-18T12:17:21.319Z,4.50
2023-02-18T12:18:21.323Z,6.00
2023-02-18T12:19:21.343Z,4.80
2023-02-18T12:20:21.301Z,5.70
2023-02-18T12:21:21.295Z,8.00
2023-02-18T12:22:21.260Z,7.60
2023-02-18T12:23:21.249Z,6.40
2023-02-18T12:24:21.239Z,6.10
2023-02-18T12:25:21.241Z,9.30
2023-02-18T12:26:21.237Z,7.60
2023-02-18T12:27:21.218Z,4.50
2023-02-18T12:28:21.195Z,5.70
2023-02-18T12:29:21.175Z,4.20
2023-02-18T12:30:21.233Z,5.70
2023-02-18T12:31:21.215Z,5.80
2023-02-18T12:32:21.151Z,4.70
2023-02-18T12:33:21.135Z,6.40
2023-02-18T12:34:21.125Z,6.20
2023-02-18T12:35:21.093Z,10.20
2023-02-18T12:36:21.084Z,4.90
2023-02-18T12:37:21.086Z,5.60
2023-02-18T12:38:21.074Z,5.70
2023-02-18T12:39:21.048Z,5.60
2023-02-18T12:40:21.092Z,6.60
2023-02-18T12:41:21.018Z,7.90
2023-02-18T12:42:21.023Z,5.40
2023-02-18T12:43:20.994Z,7.80
2023-02-18T12:44:20.992Z,5.50
2023-02-18T12:45:20.997Z,6.90
2023-02-18T12:46:20.952Z,6.30
2023-02-18T12:47:21.119Z,6.60
2023-02-18T12:48:20.924Z,4.60
2023-02-18T12:49:20.913Z,5.80
2023-02-18T12:50:20.912Z,8.70
2023-02-18T12:51:20.882Z,7.60
2023-02-18T12:52:20.893Z,6.40
2023-02-18T12:53:21.032Z,6.80
2023-02-18T12:54:20.876Z,7.60
2023-02-18T12:55:20.841Z,7.70
2023-02-18T12:56:20.832Z,8.80
2023-02-18T12:57:20.803Z,10.70
2023-02-18T12:58:20.802Z,10.30
2023-02-18T12:59:20.792Z,11.80
2023-02-18T13:00:20.816Z,10.30
2023-02-18T13:01:20.797Z,8.70
2023-02-18T13:02:20.749Z,9.30
2023-02-18T13:03:20.784Z,9.90
2023-02-18T13:04:20.729Z,10.60
2023-02-18T13:05:20.699Z,9.00
2023-02-18T13:06:20.838Z,9.70
2023-02-18T13:07:20.680Z,11.60